• Join FlightAware (Why Join?)
  • Login
  • US Flag GB Flag 
20:09 EDT


 

Airport Tracker/Info


-or-


 

Live Flight TrackerFlight Track Log ✈ SAS2710 ✈ 23-Apr-2013 ✈ EKCH / CPH - EFTU / TKU

Flight Track Log - Related Links

Times and Time Zones

All times are in EDT time to prevent confusion due to time zone crossing. See the SAS2710 flight status page for this flight to view local times or setup timezone preferences in your user account.

Time Position Orientation Groundspeed Altitude Reporting Facility
EDT Latitude Longitude Course Direction KTS MPH feet Rate Location/Type
17:00 55.8702 13.0627 42° Northeast  Level Estimated
17:01 55.9540 13.1995 42° Northeast  Level Estimated
17:02 56.0376 13.3368 43° Northeast  Level Estimated
17:03 56.1211 13.4748 43° Northeast  Level Estimated
17:04 56.2045 13.6133 43° Northeast  Level Estimated
17:05 56.2877 13.7525 43° Northeast  Level Estimated
17:06 56.3707 13.8922 43° Northeast  Level Estimated
17:07 56.4535 14.0326 43° Northeast  Level Estimated
17:08 56.5363 14.1736 43° Northeast  Level Estimated
17:09 56.6188 14.3152 43° Northeast  Level Estimated
17:10 56.7012 14.4574 43° Northeast  Level Estimated
17:11 56.7834 14.6002 44° Northeast  Level Estimated
17:12 56.8655 14.7437 44° Northeast  Level Estimated
17:13 56.9473 14.8878 44° Northeast  Level Estimated
17:14 57.0291 15.0325 44° Northeast  Level Estimated
17:15 57.1106 15.1779 44° Northeast  Level Estimated
17:16 57.1920 15.3239 44° Northeast  Level Estimated
17:17 57.2733 15.4705 44° Northeast  Level Estimated
17:18 57.3543 15.6179 44° Northeast  Level Estimated
17:19 57.4352 15.7658 45° Northeast  Level Estimated
17:20 57.5159 15.9144 45° Northeast  Level Estimated
17:21 57.5964 16.0637 45° Northeast  Level Estimated
17:22 57.6768 16.2136 45° Northeast  Level Estimated
17:23 57.7569 16.3642 45° Northeast  Level Estimated
17:24 57.8369 16.5154 45° Northeast  Level Estimated
17:25 57.9167 16.6674 45° Northeast  Level Estimated
17:26 57.9964 16.8200 45° Northeast  Level Estimated
17:27 58.0758 16.9733 46° Northeast  Level Estimated
17:28 58.1551 17.1273 46° Northeast  Level Estimated
17:29 58.2341 17.2819 46° Northeast  Level Estimated
17:30 58.3130 17.4373 46° Northeast  Level Estimated
17:31 58.4051 17.6199 46° Northeast  Level Estimated
17:32 58.4968 17.8034 46° Northeast  Level Estimated
17:33 58.5884 17.9879 46° Northeast  Level Estimated
17:34 58.6796 18.1734 47° Northeast  Level Estimated
17:35 58.7706 18.3599 47° Northeast  Level Estimated
17:36 58.8613 18.5473 47° Northeast  Level Estimated
17:37 58.9518 18.7358 47° Northeast  Level Estimated
17:38 59.0419 18.9252 47° Northeast  Level Estimated
17:39 59.1318 19.1156 47° Northeast  Level Estimated
17:40 59.2214 19.3070 48° Northeast  Level Estimated
17:41 59.3107 19.4994 48° Northeast  Level Estimated
17:42 59.3998 19.6928 48° Northeast  Level Estimated
17:43 59.4885 19.8873 48° Northeast  Level Estimated
17:44 59.5770 20.0827 48° Northeast  Level Estimated
17:45 59.6652 20.2792 48° Northeast  Level Estimated
17:46 59.7530 20.4767 49° Northeast  Level Estimated
17:47 59.8406 20.6753 49° Northeast  Level Estimated
17:48 59.9279 20.8749 49° Northeast  Level Estimated
17:49 60.0149 21.0756 49° Northeast  Level Estimated
17:50 60.1015 21.2773 49° Northeast  Level Estimated
17:51 60.1879 21.4801 49° Northeast  Level Estimated
17:52 60.2739 21.6840 50° Northeast  Level Estimated
17:53 60.3597 21.8889 50° Northeast  Level Estimated
17:54 60.4451 22.0949 50° Northeast  Level Estimated
17:55 60.5141 22.2628 50° Northeast  Level Estimated
17:56 60.5141 22.2628 334° Northwest  Level Estimated
17:57 60.5141 22.2628 334° Northwest  Level Estimated
17:58 60.5141 22.2628 334° Northwest  Level Estimated
17:59 60.5141 22.2628 334° Northwest  Level Estimated
18:00 60.5141 22.2628 334° Northwest  Level Estimated
18:01 60.5141 22.2628 334° Northwest  Level Estimated
18:02 60.5141 22.2628 334° Northwest  Level Estimated
18:03 60.5141 22.2628 334° Northwest  Level Estimated
18:04 60.5141 22.2628 334° Northwest  Level Estimated
18:05 60.5141 22.2628 334° Northwest  Level Estimated
18:06 60.5141 22.2628 334° Northwest  Level Estimated